createdAt,value
2023-04-15T00:01:37.289Z,101106.75
2023-04-15T00:04:04.823Z,101105.44
2023-04-15T00:06:31.851Z,101105.19
2023-04-15T00:08:58.664Z,101107.06
2023-04-15T00:11:25.507Z,101110.25
2023-04-15T00:13:52.108Z,101112.38
2023-04-15T00:16:18.779Z,101108.16
2023-04-15T00:18:46.044Z,101102.31
2023-04-15T00:21:12.600Z,101110.56
2023-04-15T00:23:39.245Z,101101.28
2023-04-15T00:26:05.878Z,101101.53
2023-04-15T00:28:32.433Z,101107.13
2023-04-15T00:30:59.629Z,101111.91
2023-04-15T00:33:26.435Z,101109.56
2023-04-15T00:35:53.756Z,101113.53
2023-04-15T00:38:20.301Z,101107.69
2023-04-15T00:40:47.119Z,101108.25
2023-04-15T00:43:13.928Z,101119.41
2023-04-15T00:45:41.495Z,101106.94
2023-04-15T00:48:09.546Z,101116.25
2023-04-15T00:50:36.252Z,101118.66
2023-04-15T00:53:02.926Z,101123.44
2023-04-15T00:55:29.665Z,101122.69
2023-04-15T00:57:57.697Z,101116.56
2023-04-15T01:00:24.810Z,101118.69
2023-04-15T01:02:51.605Z,101117.63
2023-04-15T01:05:20.375Z,101117.91
2023-04-15T01:07:48.230Z,101122.72
2023-04-15T01:10:14.833Z,101125.09
2023-04-15T01:12:42.307Z,101120.34
2023-04-15T01:15:11.260Z,101123.50
2023-04-15T01:17:38.334Z,101119.53
2023-04-15T01:20:06.165Z,101119.81
2023-04-15T01:22:34.456Z,101118.75
2023-04-15T01:25:06.458Z,101113.72
2023-04-15T01:27:35.368Z,101123.78
2023-04-15T01:30:03.309Z,101116.66
2023-04-15T01:32:31.322Z,101117.19
2023-04-15T01:34:58.150Z,101120.91
2023-04-15T01:37:25.328Z,101114.28
2023-04-15T01:39:52.209Z,101116.66
2023-04-15T01:42:19.175Z,101118.00
2023-04-15T01:44:46.376Z,101118.56
2023-04-15T01:47:13.149Z,101120.94
2023-04-15T01:49:40.099Z,101116.97
2023-04-15T01:52:07.109Z,101123.31
2023-04-15T01:54:33.833Z,101121.22
2023-04-15T01:57:01.303Z,101121.72
2023-04-15T01:59:27.924Z,101113.50
2023-04-15T02:01:55.219Z,101123.56
2023-04-15T02:04:21.819Z,101124.91
2023-04-15T02:06:49.311Z,101121.19
2023-04-15T02:09:16.369Z,101128.63
2023-04-15T02:11:43.098Z,101129.94
2023-04-15T02:14:09.716Z,101124.38
2023-04-15T02:16:36.734Z,101128.63
2023-04-15T02:19:03.980Z,101131.00
2023-04-15T02:21:30.788Z,101128.84
2023-04-15T02:23:57.758Z,101133.63
2023-04-15T02:26:32.465Z,101139.16
2023-04-15T02:28:59.796Z,101138.63
2023-04-15T02:31:26.647Z,101144.47
2023-04-15T02:33:53.217Z,101149.00
2023-04-15T02:36:21.308Z,101151.91
2023-04-15T02:38:48.080Z,101151.34
2023-04-15T02:41:14.895Z,101152.41
2023-04-15T02:43:41.420Z,101157.16
2023-04-15T02:46:08.447Z,101168.31
2023-04-15T02:48:35.376Z,101162.47
2023-04-15T02:51:15.524Z,101168.03
2023-04-15T02:53:42.396Z,101165.13
2023-04-15T02:59:03.562Z,101174.66
2023-04-15T03:04:24.665Z,101174.59
2023-04-15T03:06:51.712Z,101173.53
2023-04-15T03:09:18.713Z,101176.44
2023-04-15T03:12:17.343Z,101179.63
2023-04-15T03:14:44.038Z,101179.88
2023-04-15T03:17:10.510Z,101181.19
2023-04-15T03:19:37.236Z,101185.16
2023-04-15T03:22:03.824Z,101189.13
2023-04-15T03:24:30.429Z,101192.03
2023-04-15T03:26:57.955Z,101188.84
2023-04-15T03:29:24.736Z,101192.53
2023-04-15T03:31:52.765Z,101186.97
2023-04-15T03:34:19.629Z,101191.75
2023-04-15T03:36:46.922Z,101192.25
2023-04-15T03:39:13.671Z,101194.59
2023-04-15T03:41:40.691Z,101191.16
2023-04-15T03:44:07.334Z,101197.22
2023-04-15T03:46:33.941Z,101202.75
2023-04-15T03:49:01.012Z,101206.97
2023-04-15T03:51:28.499Z,101211.69
2023-04-15T03:53:55.105Z,101214.06
2023-04-15T03:56:21.668Z,101221.72
2023-04-15T03:58:48.225Z,101215.63
2023-04-15T04:01:15.041Z,101219.06
2023-04-15T04:03:41.595Z,101218.28
2023-04-15T04:06:08.498Z,101217.50
2023-04-15T04:08:35.035Z,101218.81
2023-04-15T04:11:02.016Z,101229.63
2023-04-15T04:13:28.698Z,101233.06
2023-04-15T04:15:55.553Z,101232.75
2023-04-15T04:18:22.154Z,101236.97
2023-04-15T04:20:48.995Z,101239.31
2023-04-15T04:23:15.652Z,101237.44
2023-04-15T04:25:42.512Z,101242.41
2023-04-15T04:28:09.516Z,101251.66
2023-04-15T04:30:36.166Z,101256.16
2023-04-15T04:33:03.065Z,101249.53
2023-04-15T04:35:29.662Z,101249.00
2023-04-15T04:37:56.648Z,101270.88
2023-04-15T04:40:23.385Z,101267.13
2023-04-15T04:42:50.041Z,101267.66
2023-04-15T04:45:16.656Z,101281.34
2023-04-15T04:47:43.123Z,101276.03
2023-04-15T04:50:10.343Z,101280.78
2023-04-15T04:52:37.039Z,101283.38
2023-04-15T04:55:03.763Z,101291.00
2023-04-15T04:57:30.458Z,101297.03
2023-04-15T04:59:57.648Z,101293.31
2023-04-15T05:02:27.419Z,101305.16
2023-04-15T05:04:56.184Z,101299.03
2023-04-15T05:07:22.779Z,101303.75
2023-04-15T05:09:49.562Z,101309.53
2023-04-15T05:12:16.173Z,101316.91
2023-04-15T05:14:43.030Z,101323.78
2023-04-15T05:17:09.757Z,101325.88
2023-04-15T05:19:36.257Z,101336.78
2023-04-15T05:22:03.233Z,101330.97
2023-04-15T05:24:29.851Z,101339.22
2023-04-15T05:26:57.115Z,101336.31
2023-04-15T05:29:23.752Z,101342.97
2023-04-15T05:31:50.896Z,101340.88
2023-04-15T05:34:17.635Z,101349.34
2023-04-15T05:36:44.176Z,101352.78
2023-04-15T05:39:10.745Z,101361.03
2023-04-15T05:41:38.137Z,101355.47
2023-04-15T05:44:05.147Z,101365.25
2023-04-15T05:46:31.751Z,101367.44
2023-04-15T05:48:58.416Z,101369.81
2023-04-15T05:51:25.100Z,101376.47
2023-04-15T05:53:51.601Z,101381.00
2023-04-15T05:56:18.243Z,101381.56
2023-04-15T05:58:44.844Z,101380.25
2023-04-15T06:04:06.417Z,101392.25
2023-04-15T06:06:33.395Z,101390.16
2023-04-15T06:09:00.459Z,101396.22
2023-04-15T06:12:04.730Z,101397.56
2023-04-15T06:14:31.449Z,101403.66
2023-04-15T06:16:58.428Z,101408.16
2023-04-15T06:19:25.604Z,101417.44
2023-04-15T06:21:52.143Z,101421.44
2023-04-15T06:24:18.873Z,101420.38
2023-04-15T06:26:45.652Z,101433.13
2023-04-15T06:29:12.194Z,101432.84
2023-04-15T06:31:38.713Z,101434.47
2023-04-15T06:34:05.512Z,101432.13
2023-04-15T06:36:32.781Z,101445.72
2023-04-15T06:38:59.699Z,101450.03
2023-04-15T06:44:20.817Z,101456.97
2023-04-15T06:46:47.429Z,101458.47
2023-04-15T06:49:13.870Z,101461.78
2023-04-15T06:51:40.619Z,101459.50
2023-04-15T06:54:07.478Z,101464.88
2023-04-15T06:56:34.283Z,101469.47
2023-04-15T06:59:00.980Z,101469.81
2023-04-15T07:01:28.316Z,101487.41
2023-04-15T07:03:55.178Z,101483.25
2023-04-15T07:06:23.043Z,101494.47
2023-04-15T07:08:49.756Z,101496.06
2023-04-15T07:11:17.314Z,101500.63
2023-04-15T07:13:44.076Z,101495.34
2023-04-15T07:16:10.720Z,101509.44
2023-04-15T07:18:37.348Z,101505.19
2023-04-15T07:21:04.530Z,101515.06
2023-04-15T07:23:31.497Z,101512.91
2023-04-15T07:25:58.151Z,101516.13
2023-04-15T07:28:24.903Z,101524.88
2023-04-15T07:30:52.006Z,101523.03
2023-04-15T07:33:18.848Z,101525.44
2023-04-15T07:35:46.155Z,101527.03
2023-04-15T07:38:13.770Z,101532.63
2023-04-15T07:40:40.616Z,101531.03
2023-04-15T07:43:07.314Z,101522.53
2023-04-15T07:45:34.079Z,101536.34
2023-04-15T07:48:01.849Z,101538.47
2023-04-15T07:50:29.125Z,101534.47
2023-04-15T07:52:56.065Z,101550.16
2023-04-15T07:55:23.607Z,101532.31
2023-04-15T07:57:50.790Z,101536.53
2023-04-15T08:00:17.641Z,101545.56
2023-04-15T08:02:44.628Z,101552.19
2023-04-15T08:05:11.476Z,101549.53
2023-04-15T08:07:38.833Z,101555.34
2023-04-15T08:10:06.486Z,101565.75
2023-04-15T08:12:33.274Z,101562.53
2023-04-15T08:15:00.248Z,101564.13
2023-04-15T08:17:27.015Z,101561.47
2023-04-15T08:19:54.110Z,101565.16
2023-04-15T08:22:22.367Z,101567.53
2023-04-15T08:24:49.093Z,101577.66
2023-04-15T08:27:15.684Z,101573.13
2023-04-15T08:29:42.380Z,101565.63
2023-04-15T08:32:09.640Z,101576.00
2023-04-15T08:34:36.487Z,101574.66
2023-04-15T08:37:03.288Z,101576.19
2023-04-15T08:39:30.062Z,101580.69
2023-04-15T08:42:05.789Z,101586.81
2023-04-15T08:44:38.363Z,101592.38
2023-04-15T08:47:08.452Z,101598.53
2023-04-15T08:49:40.121Z,101600.41
2023-04-15T08:52:07.530Z,101614.50
2023-04-15T08:54:35.266Z,101614.31
2023-04-15T08:57:02.630Z,101618.84
2023-04-15T08:59:31.328Z,101625.97
2023-04-15T09:02:00.226Z,101630.72
2023-04-15T09:04:28.358Z,101624.66
2023-04-15T09:06:55.055Z,101630.19
2023-04-15T09:09:22.852Z,101630.38
2023-04-15T09:11:51.501Z,101634.38
2023-04-15T09:14:18.457Z,101640.19
2023-04-15T09:17:04.059Z,101648.41
2023-04-15T09:19:33.910Z,101652.72
2023-04-15T09:22:01.391Z,101654.59
2023-04-15T09:24:39.933Z,101647.38
2023-04-15T09:27:07.341Z,101659.91
2023-04-15T09:29:34.189Z,101660.06
2023-04-15T09:32:14.191Z,101669.53
2023-04-15T09:34:40.826Z,101677.53
2023-04-15T09:37:08.182Z,101671.00
2023-04-15T09:39:52.134Z,101674.84
2023-04-15T09:42:24.769Z,101671.09
2023-04-15T09:44:53.301Z,101670.47
2023-04-15T09:47:32.402Z,101670.94
2023-04-15T09:50:00.699Z,101674.09
2023-04-15T09:52:28.803Z,101675.09
2023-04-15T09:54:58.654Z,101672.59
2023-04-15T09:57:25.707Z,101673.88
2023-04-15T09:59:52.541Z,101672.06
2023-04-15T10:02:22.842Z,101682.16
2023-04-15T10:04:50.335Z,101681.56
2023-04-15T10:07:20.480Z,101692.03
2023-04-15T10:09:49.240Z,101685.00
2023-04-15T10:12:20.349Z,101690.41
2023-04-15T10:14:56.725Z,101700.09
2023-04-15T10:17:25.306Z,101700.75
2023-04-15T10:19:54.947Z,101705.78
2023-04-15T10:22:23.167Z,101696.78
2023-04-15T10:24:50.685Z,101697.84
2023-04-15T10:27:18.900Z,101700.50
2023-04-15T10:29:46.082Z,101700.19
2023-04-15T10:32:14.007Z,101697.38
2023-04-15T10:34:41.272Z,101691.16
2023-04-15T10:37:11.234Z,101709.88
2023-04-15T10:39:40.783Z,101704.38
2023-04-15T10:42:14.290Z,101713.56
2023-04-15T10:44:46.228Z,101704.38
2023-04-15T10:47:15.618Z,101726.25
2023-04-15T10:49:50.616Z,101714.47
2023-04-15T10:52:18.745Z,101724.03
2023-04-15T10:54:45.783Z,101720.91
2023-04-15T10:57:23.197Z,101719.72
2023-04-15T11:00:04.909Z,101734.28
2023-04-15T11:03:00.204Z,101739.09
2023-04-15T11:06:00.190Z,101737.34
2023-04-15T11:08:57.003Z,101741.13
2023-04-15T11:11:23.750Z,101736.34
2023-04-15T11:13:52.457Z,101734.78
2023-04-15T11:16:19.114Z,101744.88
2023-04-15T11:18:55.901Z,101739.09
2023-04-15T11:21:26.198Z,101738.63
2023-04-15T11:23:53.051Z,101745.47
2023-04-15T11:26:19.832Z,101744.97
2023-04-15T11:28:46.806Z,101742.22
2023-04-15T11:31:18.533Z,101751.69
2023-04-15T11:34:02.983Z,101755.50
2023-04-15T11:36:32.355Z,101748.34
2023-04-15T11:38:59.971Z,101750.44
2023-04-15T11:41:26.512Z,101753.06
2023-04-15T11:43:53.577Z,101747.16
2023-04-15T11:46:21.911Z,101752.63
2023-04-15T11:48:48.816Z,101747.81
2023-04-15T11:51:15.568Z,101754.72
2023-04-15T11:53:47.318Z,101759.13
2023-04-15T11:56:25.132Z,101767.03
2023-04-15T11:58:59.875Z,101755.66
2023-04-15T12:01:37.877Z,101771.34
2023-04-15T12:04:13.024Z,101775.19
2023-04-15T12:06:41.385Z,101769.94
2023-04-15T12:09:14.447Z,101784.19
2023-04-15T12:11:57.489Z,101770.13
2023-04-15T12:14:34.868Z,101790.63
2023-04-15T12:17:07.444Z,101789.97
2023-04-15T12:19:41.969Z,101796.13
2023-04-15T12:22:13.829Z,101794.53
2023-04-15T12:24:44.037Z,101789.59
2023-04-15T12:27:15.370Z,101795.53
2023-04-15T12:29:43.334Z,101815.44
2023-04-15T12:32:12.246Z,101809.59
2023-04-15T12:34:42.624Z,101807.38
2023-04-15T12:37:12.148Z,101810.13
2023-04-15T12:39:41.651Z,101811.63
2023-04-15T12:42:15.035Z,101819.44
2023-04-15T12:47:33.212Z,101829.38
2023-04-15T12:49:59.817Z,101825.06
2023-04-15T12:55:26.325Z,101837.44
2023-04-15T12:57:55.945Z,101837.97
2023-04-15T13:03:39.517Z,101840.19
2023-04-15T13:06:06.197Z,101846.31
2023-04-15T13:08:33.138Z,101855.13
2023-04-15T13:11:03.536Z,101854.41
2023-04-15T13:13:32.401Z,101862.94
2023-04-15T13:15:59.619Z,101865.31
2023-04-15T13:18:26.714Z,101872.81
2023-04-15T13:20:54.769Z,101870.44
2023-04-15T13:23:21.500Z,101891.88
2023-04-15T13:25:48.304Z,101888.72
2023-04-15T13:28:18.275Z,101880.81
2023-04-15T13:30:45.903Z,101889.31
2023-04-15T13:33:12.563Z,101889.66
2023-04-15T13:35:40.787Z,101892.81
2023-04-15T13:38:07.539Z,101908.00
2023-04-15T13:40:34.612Z,101894.81
2023-04-15T13:43:02.091Z,101899.03
2023-04-15T13:45:29.131Z,101905.91
2023-04-15T13:47:57.751Z,101911.41
2023-04-15T13:50:24.569Z,101918.63
2023-04-15T13:52:51.276Z,101919.69
2023-04-15T13:55:20.528Z,101922.84
2023-04-15T13:57:48.820Z,101927.09
2023-04-15T14:00:15.776Z,101927.91
2023-04-15T14:02:42.832Z,101933.22
2023-04-15T14:05:10.749Z,101918.59
2023-04-15T14:07:44.176Z,101927.44
2023-04-15T14:10:11.041Z,101932.75
2023-04-15T14:12:37.724Z,101929.84
2023-04-15T14:15:05.987Z,101941.81
2023-04-15T14:17:33.903Z,101946.91
2023-04-15T14:20:04.124Z,101943.16
2023-04-15T14:22:31.213Z,101963.19
2023-04-15T14:24:57.989Z,101965.63
2023-04-15T14:27:24.757Z,101964.31
2023-04-15T14:29:51.974Z,101972.06
2023-04-15T14:32:19.109Z,101985.41
2023-04-15T14:34:45.836Z,101973.41
2023-04-15T14:37:15.072Z,101978.19
2023-04-15T14:39:41.639Z,101977.69
2023-04-15T14:42:08.431Z,101981.38
2023-04-15T14:44:35.118Z,101975.28
2023-04-15T14:47:01.898Z,101988.59
2023-04-15T14:49:29.279Z,101987.22
2023-04-15T14:51:56.221Z,101999.78
2023-04-15T14:54:24.398Z,101997.13
2023-04-15T14:59:45.470Z,102015.47
2023-04-15T15:02:17.285Z,102012.28
2023-04-15T15:04:53.296Z,102021.34
2023-04-15T15:07:19.984Z,102016.28
2023-04-15T15:09:46.846Z,102022.66
2023-04-15T15:12:13.488Z,102030.66
2023-04-15T15:14:40.080Z,102024.22
2023-04-15T15:17:07.035Z,102027.47
2023-04-15T15:19:33.951Z,102032.50
2023-04-15T15:22:00.628Z,102042.63
2023-04-15T15:24:27.207Z,102050.34
2023-04-15T15:26:53.957Z,102046.88
2023-04-15T15:29:20.815Z,102045.78
2023-04-15T15:31:47.599Z,102050.53
2023-04-15T15:34:14.452Z,102047.09
2023-04-15T15:36:41.733Z,102056.41
2023-04-15T15:39:08.985Z,102049.97
2023-04-15T15:44:31.513Z,102055.50
2023-04-15T15:46:59.267Z,102053.56
2023-04-15T15:49:28.215Z,102071.94
2023-04-15T15:51:56.076Z,102067.16
2023-04-15T15:54:23.016Z,102067.16
2023-04-15T15:56:50.299Z,102080.94
2023-04-15T15:59:17.051Z,102070.53
2023-04-15T16:01:44.288Z,102075.84
2023-04-15T16:04:11.212Z,102078.22
2023-04-15T16:06:37.897Z,102084.66
2023-04-15T16:09:04.736Z,102086.22
2023-04-15T16:11:31.660Z,102095.28
2023-04-15T16:13:58.305Z,102093.63
2023-04-15T16:16:25.057Z,102095.63
2023-04-15T16:18:51.577Z,102095.56
2023-04-15T16:21:18.363Z,102102.53
2023-04-15T16:26:41.042Z,102109.38
2023-04-15T16:29:08.145Z,102108.03
2023-04-15T16:31:36.409Z,102120.88
2023-04-15T16:34:03.984Z,102121.25
2023-04-15T16:36:31.734Z,102121.81
2023-04-15T16:38:58.330Z,102127.50
2023-04-15T16:41:25.587Z,102137.91
2023-04-15T16:43:52.173Z,102144.44
2023-04-15T16:46:18.754Z,102133.88
2023-04-15T16:48:48.724Z,102136.50
2023-04-15T16:51:15.687Z,102143.91
2023-04-15T16:53:43.236Z,102137.47
2023-04-15T16:56:09.809Z,102141.66
2023-04-15T16:58:36.584Z,102141.31
2023-04-15T17:01:03.370Z,102150.03
2023-04-15T17:03:31.290Z,102158.63
2023-04-15T17:06:06.343Z,102160.88
2023-04-15T17:08:33.228Z,102163.41
2023-04-15T17:11:00.209Z,102160.09
2023-04-15T17:13:26.892Z,102156.94
2023-04-15T17:15:55.611Z,102160.72
2023-04-15T17:18:24.131Z,102164.47
2023-04-15T17:21:22.902Z,102161.44
2023-04-15T17:23:50.585Z,102172.00
2023-04-15T17:26:18.129Z,102168.38
2023-04-15T17:28:45.310Z,102170.38
2023-04-15T17:31:12.356Z,102181.16
2023-04-15T17:34:00.328Z,102180.16
2023-04-15T17:36:27.607Z,102169.13
2023-04-15T17:38:57.118Z,102184.00
2023-04-15T17:41:27.208Z,102176.38
2023-04-15T17:43:53.842Z,102187.22
2023-04-15T17:46:20.734Z,102185.53
2023-04-15T17:48:47.797Z,102191.69
2023-04-15T17:51:15.249Z,102196.72
2023-04-15T17:53:41.890Z,102193.50
2023-04-15T17:56:08.597Z,102215.28
2023-04-15T17:58:35.338Z,102208.91
2023-04-15T18:01:02.181Z,102213.09
2023-04-15T18:03:28.948Z,102211.25
2023-04-15T18:08:50.693Z,102215.38
2023-04-15T18:11:17.522Z,102215.84
2023-04-15T18:13:44.034Z,102216.16
2023-04-15T18:16:17.786Z,102226.56
2023-04-15T18:18:44.618Z,102216.72
2023-04-15T18:21:13.539Z,102232.28
2023-04-15T18:23:40.727Z,102227.16
2023-04-15T18:26:07.320Z,102236.06
2023-04-15T18:28:34.101Z,102243.00
2023-04-15T18:33:56.701Z,102247.09
2023-04-15T18:36:24.380Z,102241.97
2023-04-15T18:38:51.151Z,102242.22
2023-04-15T18:41:17.718Z,102245.69
2023-04-15T18:43:44.657Z,102251.88
2023-04-15T18:46:12.518Z,102252.53
2023-04-15T18:48:39.177Z,102256.06
2023-04-15T18:51:05.880Z,102257.19
2023-04-15T18:53:32.714Z,102256.56
2023-04-15T18:56:01.930Z,102251.97
2023-04-15T18:58:28.959Z,102272.22
2023-04-15T19:01:15.483Z,102267.59
2023-04-15T19:03:42.208Z,102281.66
2023-04-15T19:06:08.950Z,102281.31
2023-04-15T19:08:35.712Z,102287.78
2023-04-15T19:11:02.461Z,102286.06
2023-04-15T19:13:29.398Z,102291.38
2023-04-15T19:15:56.396Z,102283.13
2023-04-15T19:18:23.429Z,102276.28
2023-04-15T19:20:52.287Z,102285.50
2023-04-15T19:23:19.056Z,102281.91
2023-04-15T19:25:45.854Z,102282.22
2023-04-15T19:28:12.495Z,102283.34
2023-04-15T19:30:39.346Z,102289.78
2023-04-15T19:33:06.273Z,102302.09
2023-04-15T19:35:33.326Z,102297.16
2023-04-15T19:37:59.931Z,102291.69
2023-04-15T19:40:26.859Z,102301.91
2023-04-15T19:42:53.606Z,102297.28
2023-04-15T19:45:20.305Z,102297.97
2023-04-15T19:47:47.368Z,102304.41
2023-04-15T19:50:15.900Z,102306.00
2023-04-15T19:52:42.799Z,102304.41
2023-04-15T19:55:09.559Z,102307.69
2023-04-15T19:57:36.615Z,102313.88
2023-04-15T20:00:05.115Z,102313.41
2023-04-15T20:02:32.136Z,102317.56
2023-04-15T20:04:58.699Z,102316.88
2023-04-15T20:07:27.663Z,102318.56
2023-04-15T20:09:54.236Z,102312.69
2023-04-15T20:12:50.053Z,102319.50
2023-04-15T20:15:08.595Z,102313.13
2023-04-15T20:17:36.672Z,102310.63
2023-04-15T20:20:07.231Z,102312.38
2023-04-15T20:22:34.549Z,102310.53
2023-04-15T20:25:02.225Z,102311.25
2023-04-15T20:27:29.070Z,102318.28
2023-04-15T20:29:56.191Z,102321.50
2023-04-15T20:32:24.331Z,102325.09
2023-04-15T20:34:51.267Z,102320.28
2023-04-15T20:37:18.016Z,102321.34
2023-04-15T20:39:44.893Z,102323.44
2023-04-15T20:42:11.840Z,102323.66
2023-04-15T20:44:41.237Z,102322.50
2023-04-15T20:47:08.601Z,102321.94
2023-04-15T20:49:37.022Z,102321.34
2023-04-15T20:52:05.142Z,102325.50
2023-04-15T20:54:31.732Z,102326.53
2023-04-15T20:56:58.469Z,102325.94
2023-04-15T20:59:25.227Z,102328.16
2023-04-15T21:01:52.042Z,102323.88
2023-04-15T21:04:19.067Z,102329.66
2023-04-15T21:06:45.990Z,102329.88
2023-04-15T21:09:12.716Z,102331.75
2023-04-15T21:11:57.573Z,102333.34
2023-04-15T21:14:25.805Z,102339.13
2023-04-15T21:16:52.477Z,102341.53
2023-04-15T21:19:19.138Z,102343.13
2023-04-15T21:21:46.352Z,102344.66
2023-04-15T21:24:13.207Z,102350.75
2023-04-15T21:26:39.850Z,102344.88
2023-04-15T21:29:08.550Z,102347.53
2023-04-15T21:31:36.275Z,102355.72
2023-04-15T21:34:03.015Z,102356.75
2023-04-15T21:36:29.781Z,102351.13
2023-04-15T21:38:56.432Z,102358.38
2023-04-15T21:41:23.070Z,102356.31
2023-04-15T21:43:49.922Z,102352.06
2023-04-15T21:46:22.036Z,102359.19
2023-04-15T21:48:53.613Z,102356.53
2023-04-15T21:51:20.666Z,102344.56
2023-04-15T21:53:47.332Z,102355.97
2023-04-15T21:59:08.253Z,102364.97
2023-04-15T22:01:34.886Z,102374.50
2023-04-15T22:04:01.552Z,102374.50
2023-04-15T22:06:28.386Z,102380.84
2023-04-15T22:08:57.724Z,102373.69
2023-04-15T22:11:29.627Z,102380.63
2023-04-15T22:13:57.705Z,102379.81
2023-04-15T22:16:27.596Z,102383.28
2023-04-15T22:18:55.013Z,102384.88
2023-04-15T22:21:21.780Z,102376.13
2023-04-15T22:23:49.126Z,102381.44
2023-04-15T22:26:15.868Z,102378.31
2023-04-15T22:28:42.513Z,102375.66
2023-04-15T22:31:09.356Z,102373.00
2023-04-15T22:33:36.221Z,102382.00
2023-04-15T22:36:02.859Z,102390.75
2023-04-15T22:38:29.669Z,102387.31
2023-04-15T22:40:56.368Z,102393.97
2023-04-15T22:43:22.988Z,102391.56
2023-04-15T22:45:51.590Z,102393.41
2023-04-15T22:48:18.977Z,102393.75
2023-04-15T22:50:45.894Z,102396.41
2023-04-15T22:53:12.716Z,102393.75
2023-04-15T22:58:33.245Z,102396.97
2023-04-15T23:00:59.997Z,102396.72
2023-04-15T23:03:27.015Z,102409.75
2023-04-15T23:05:54.865Z,102409.97
2023-04-15T23:08:24.316Z,102405.50
2023-04-15T23:10:52.014Z,102410.56
2023-04-15T23:13:18.536Z,102405.50
2023-04-15T23:15:45.117Z,102412.63
2023-04-15T23:18:12.340Z,102416.56
2023-04-15T23:20:38.979Z,102422.91
2023-04-15T23:23:05.611Z,102417.81
2023-04-15T23:25:32.244Z,102421.06
2023-04-15T23:27:58.843Z,102424.97
2023-04-15T23:30:25.413Z,102414.38
2023-04-15T23:32:51.989Z,102425.41
2023-04-15T23:35:18.655Z,102429.94
2023-04-15T23:37:45.326Z,102426.00
2023-04-15T23:40:12.853Z,102422.78
2023-04-15T23:42:39.455Z,102423.25
2023-04-15T23:45:06.584Z,102430.72
2023-04-15T23:47:33.423Z,102432.00
2023-04-15T23:50:00.011Z,102436.03
2023-04-15T23:52:26.950Z,102429.34
2023-04-15T23:54:53.610Z,102435.44
2023-04-15T23:57:20.405Z,102430.72
2023-04-15T23:59:47.005Z,102437.66
